createdAt,value
2023-04-11T00:01:58.749Z,11.90
2023-04-11T00:04:25.644Z,14.37
2023-04-11T00:06:52.426Z,14.37
2023-04-11T00:09:19.122Z,12.20
2023-04-11T00:11:45.796Z,13.53
2023-04-11T00:14:12.595Z,15.00
2023-04-11T00:16:39.852Z,14.30
2023-04-11T00:19:09.574Z,12.83
2023-04-11T00:21:39.910Z,12.70
2023-04-11T00:24:09.538Z,12.17
2023-04-11T00:26:36.071Z,12.10
2023-04-11T00:29:02.717Z,12.13
2023-04-11T00:31:29.371Z,12.87
2023-04-11T00:33:56.559Z,12.33
2023-04-11T00:36:23.301Z,12.23
2023-04-11T00:38:50.282Z,11.40
2023-04-11T00:41:16.917Z,12.20
2023-04-11T00:43:43.634Z,11.13
2023-04-11T00:46:10.381Z,12.03
2023-04-11T00:48:37.067Z,12.10
2023-04-11T00:51:04.541Z,14.13
2023-04-11T00:53:32.963Z,13.50
2023-04-11T00:55:59.936Z,12.90
2023-04-11T00:58:27.023Z,13.20
2023-04-11T01:00:53.737Z,11.77
2023-04-11T01:03:21.710Z,11.63
2023-04-11T01:05:48.952Z,11.97
2023-04-11T01:08:15.498Z,12.17
2023-04-11T01:10:42.137Z,11.97
2023-04-11T01:13:08.842Z,11.83
2023-04-11T01:15:35.445Z,11.13
2023-04-11T01:18:02.477Z,11.43
2023-04-11T01:20:30.587Z,10.87
2023-04-11T01:22:58.759Z,10.87
2023-04-11T01:25:25.626Z,11.03
2023-04-11T01:27:52.924Z,10.50
2023-04-11T01:30:19.582Z,11.07
2023-04-11T01:32:47.392Z,10.37
2023-04-11T01:35:14.815Z,10.47
2023-04-11T01:37:42.222Z,9.60
2023-04-11T01:40:09.577Z,10.17
2023-04-11T02:18:48.318Z,11.30
2023-04-11T02:21:15.949Z,11.70
2023-04-11T02:23:45.948Z,11.63
2023-04-11T02:26:12.604Z,10.93
2023-04-11T02:28:39.216Z,13.50
2023-04-11T02:31:06.919Z,12.27
2023-04-11T02:33:34.362Z,11.97
2023-04-11T02:36:01.222Z,11.10
2023-04-11T02:38:27.914Z,9.80
2023-04-11T02:40:54.496Z,10.33
2023-04-11T02:43:21.192Z,10.30
2023-04-11T02:45:47.758Z,11.00
2023-04-11T02:48:14.859Z,10.47
2023-04-11T02:50:44.428Z,11.07
2023-04-11T02:53:11.675Z,11.20
2023-04-11T02:55:45.356Z,9.63
2023-04-11T02:58:17.812Z,10.73
2023-04-11T03:00:45.821Z,9.87
2023-04-11T03:03:12.797Z,10.30
2023-04-11T03:05:43.291Z,10.50
2023-04-11T03:08:11.109Z,9.47
2023-04-11T03:10:42.086Z,9.23
2023-04-11T03:13:11.505Z,10.20
2023-04-11T03:15:38.855Z,9.70
2023-04-11T03:18:08.598Z,10.27
2023-04-11T03:20:38.847Z,10.23
2023-04-11T03:23:07.629Z,11.03
2023-04-11T03:25:34.251Z,10.67
2023-04-11T03:28:04.205Z,10.50
2023-04-11T03:30:31.362Z,12.00
2023-04-11T03:33:01.432Z,13.47
2023-04-11T03:35:30.939Z,13.03
2023-04-11T03:37:57.660Z,14.07
2023-04-11T03:40:24.869Z,13.67
2023-04-11T03:43:04.948Z,14.40
2023-04-11T03:45:34.618Z,13.30
2023-04-11T03:48:04.678Z,13.77
2023-04-11T03:50:44.764Z,14.27
2023-04-11T03:53:13.849Z,18.10
2023-04-11T03:55:44.139Z,15.47
2023-04-11T03:58:13.710Z,12.23
2023-04-11T04:00:43.644Z,13.67
2023-04-11T04:03:13.863Z,13.73
2023-04-11T04:05:41.831Z,12.23
2023-04-11T04:08:11.694Z,14.93
2023-04-11T04:10:47.896Z,14.37
2023-04-11T04:13:15.161Z,14.30
2023-04-11T04:15:49.923Z,13.10
2023-04-11T04:18:18.338Z,11.00
2023-04-11T04:20:47.004Z,12.60
2023-04-11T04:23:18.381Z,12.60
2023-04-11T04:25:53.597Z,13.53
2023-04-11T04:28:26.198Z,13.43
2023-04-11T04:30:58.136Z,12.80
2023-04-11T04:33:33.227Z,12.83
2023-04-11T04:36:06.223Z,14.67
2023-04-11T04:38:35.390Z,15.00
2023-04-11T04:41:06.252Z,12.83
2023-04-11T04:43:37.652Z,12.77
2023-04-11T04:46:20.898Z,11.20
2023-04-11T04:48:53.628Z,10.70
2023-04-11T04:51:20.719Z,10.50
2023-04-11T04:53:47.988Z,10.73
2023-04-11T04:56:18.911Z,10.40
2023-04-11T04:58:48.255Z,10.93
2023-04-11T05:01:17.182Z,10.73
2023-04-11T05:03:46.964Z,10.63
2023-04-11T05:06:22.361Z,10.37
2023-04-11T05:08:51.215Z,10.27
2023-04-11T05:11:17.827Z,11.30
2023-04-11T05:13:44.723Z,12.00
2023-04-11T05:16:11.679Z,12.13
2023-04-11T05:18:38.370Z,14.27
2023-04-11T05:21:05.495Z,14.00
2023-04-11T05:23:39.028Z,13.37
2023-04-11T05:26:06.829Z,14.37
2023-04-11T05:28:34.148Z,13.83
2023-04-11T05:31:05.517Z,13.87
2023-04-11T05:33:33.077Z,13.27
2023-04-11T05:36:03.163Z,13.03
2023-04-11T05:38:32.821Z,12.57
2023-04-11T05:41:00.039Z,12.40
2023-04-11T05:43:27.539Z,13.03
2023-04-11T05:45:56.809Z,12.70
2023-04-11T05:48:24.291Z,12.20
2023-04-11T05:50:51.468Z,12.33
2023-04-11T05:53:18.222Z,12.17
2023-04-11T05:55:45.456Z,12.77
2023-04-11T05:58:12.550Z,12.77
2023-04-11T06:00:42.304Z,12.10
2023-04-11T06:03:09.544Z,11.70
2023-04-11T06:05:36.710Z,12.57
2023-04-11T06:08:05.489Z,11.87
2023-04-11T06:10:32.970Z,12.23
2023-04-11T06:12:59.732Z,11.50
2023-04-11T06:15:27.004Z,11.20
2023-04-11T06:17:54.172Z,11.60
2023-04-11T06:20:21.807Z,11.40
2023-04-11T06:22:51.693Z,12.00
2023-04-11T06:25:18.962Z,11.60
2023-04-11T06:27:45.690Z,10.93
2023-04-11T06:30:13.115Z,11.20
2023-04-11T06:32:40.023Z,10.60
2023-04-11T06:35:07.076Z,10.57
2023-04-11T06:37:33.729Z,10.33
2023-04-11T06:40:01.009Z,10.70
2023-04-11T06:42:27.697Z,10.87
2023-04-11T06:44:54.318Z,11.27
2023-04-11T06:47:23.775Z,10.17
2023-04-11T06:49:50.810Z,10.17
2023-04-11T06:52:18.155Z,10.50
2023-04-11T06:54:44.901Z,9.50
2023-04-11T06:57:11.625Z,10.90
2023-04-11T06:59:38.211Z,10.90
2023-04-11T07:02:06.205Z,10.30
2023-04-11T07:04:35.170Z,10.03
2023-04-11T07:07:01.997Z,10.73
2023-04-11T07:09:28.652Z,9.87
2023-04-11T07:11:56.731Z,10.10
2023-04-11T07:14:23.419Z,10.87
2023-04-11T07:16:51.172Z,12.67
2023-04-11T07:19:18.222Z,13.27
2023-04-11T07:21:45.334Z,11.17
2023-04-11T07:24:13.407Z,10.50
2023-04-11T07:26:42.493Z,11.33
2023-04-11T07:29:10.982Z,10.57
2023-04-11T07:31:39.316Z,10.17
2023-04-11T07:34:06.045Z,9.53
2023-04-11T07:36:32.769Z,9.67
2023-04-11T07:39:00.289Z,10.60
2023-04-11T07:41:27.526Z,12.00
2023-04-11T07:43:57.882Z,9.57
2023-04-11T07:46:24.876Z,10.00
2023-04-11T07:48:51.594Z,10.07
2023-04-11T07:51:19.018Z,10.87
2023-04-11T07:53:47.027Z,10.77
2023-04-11T07:56:14.855Z,10.93
2023-04-11T07:58:42.620Z,11.20
2023-04-11T08:01:29.718Z,11.83
2023-04-11T08:03:57.354Z,10.40
2023-04-11T08:06:27.049Z,11.63
2023-04-11T08:08:54.133Z,11.67
2023-04-11T08:11:20.960Z,10.60
2023-04-11T08:13:47.862Z,10.70
2023-04-11T08:16:15.356Z,11.57
2023-04-11T08:18:43.410Z,9.10
2023-04-11T08:21:11.014Z,9.40
2023-04-11T08:23:39.828Z,9.37
2023-04-11T08:26:08.171Z,10.00
2023-04-11T08:28:36.016Z,7.10
2023-04-11T08:31:04.145Z,7.03
2023-04-11T08:33:32.588Z,8.73
2023-04-11T08:35:59.782Z,7.33
2023-04-11T08:38:26.984Z,7.57
2023-04-11T08:40:56.911Z,7.40
2023-04-11T08:43:25.765Z,7.83
2023-04-11T08:45:52.918Z,8.03
2023-04-11T08:48:23.506Z,6.50
2023-04-11T08:50:50.415Z,6.20
2023-04-11T08:53:24.834Z,7.07
2023-04-11T08:55:52.451Z,6.17
2023-04-11T08:58:19.547Z,6.30
2023-04-11T09:00:47.736Z,5.87
2023-04-11T09:03:16.364Z,6.17
2023-04-11T09:05:51.366Z,4.90
2023-04-11T09:08:19.139Z,6.03
2023-04-11T09:10:46.301Z,5.17
2023-04-11T09:13:20.059Z,5.67
2023-04-11T09:16:04.994Z,5.20
2023-04-11T09:18:35.584Z,5.07
2023-04-11T09:21:08.873Z,5.13
2023-04-11T09:23:35.587Z,5.83
2023-04-11T09:26:02.374Z,4.60
2023-04-11T09:28:33.883Z,4.83
2023-04-11T09:31:00.633Z,4.47
2023-04-11T09:33:31.732Z,4.90
2023-04-11T09:35:59.057Z,4.53
2023-04-11T09:38:29.279Z,4.80
2023-04-11T09:40:56.684Z,4.20
2023-04-11T09:43:23.329Z,4.07
2023-04-11T09:45:54.546Z,4.70
2023-04-11T09:48:32.001Z,4.17
2023-04-11T09:51:05.464Z,3.60
2023-04-11T09:53:32.633Z,4.10
2023-04-11T09:55:59.996Z,4.47
2023-04-11T09:58:26.792Z,5.10
2023-04-11T10:00:53.840Z,3.50
2023-04-11T10:03:23.904Z,4.20
2023-04-11T10:05:52.165Z,4.17
2023-04-11T10:08:22.016Z,5.00
2023-04-11T10:10:49.339Z,3.77
2023-04-11T10:13:42.403Z,4.77
2023-04-11T10:16:14.786Z,3.90
2023-04-11T10:18:52.244Z,3.93
2023-04-11T10:21:31.375Z,4.37
2023-04-11T10:24:12.791Z,4.70
2023-04-11T10:26:48.797Z,4.70
2023-04-11T10:29:36.293Z,4.90
2023-04-11T10:32:12.706Z,4.73
2023-04-11T10:34:42.068Z,4.87
2023-04-11T10:37:09.294Z,5.40
2023-04-11T10:39:49.167Z,4.50
2023-04-11T10:42:26.527Z,4.70
2023-04-11T10:45:11.692Z,4.53
2023-04-11T10:47:38.575Z,4.30
2023-04-11T10:50:25.360Z,4.20
2023-04-11T10:52:52.495Z,4.70
2023-04-11T10:55:19.914Z,5.43
2023-04-11T10:58:07.157Z,4.30
2023-04-11T11:00:54.438Z,4.23
2023-04-11T11:03:23.237Z,4.43
2023-04-11T11:05:59.848Z,4.20
2023-04-11T11:08:30.879Z,4.30
2023-04-11T11:11:01.960Z,3.93
2023-04-11T11:13:38.636Z,4.03
2023-04-11T11:16:05.713Z,4.17
2023-04-11T11:18:37.063Z,4.03
2023-04-11T11:21:07.402Z,3.87
2023-04-11T11:23:36.494Z,3.60
2023-04-11T11:26:03.316Z,3.43
2023-04-11T11:28:30.112Z,3.73
2023-04-11T11:30:57.022Z,3.53
2023-04-11T11:33:26.418Z,3.77
2023-04-11T11:36:00.147Z,3.50
2023-04-11T11:38:27.441Z,3.80
2023-04-11T11:40:54.128Z,3.83
2023-04-11T11:43:20.952Z,3.30
2023-04-11T11:45:48.058Z,3.50
2023-04-11T11:48:28.365Z,3.90
2023-04-11T11:50:58.691Z,3.90
2023-04-11T11:53:26.182Z,3.33
2023-04-11T11:55:53.151Z,3.57
2023-04-11T11:58:20.082Z,3.70
2023-04-11T12:00:50.537Z,3.87
2023-04-11T12:03:18.517Z,3.87
2023-04-11T12:05:45.373Z,3.60
2023-04-11T12:08:12.719Z,3.57
2023-04-11T12:10:41.095Z,4.10
2023-04-11T12:13:23.747Z,3.73
2023-04-11T12:15:51.355Z,3.10
2023-04-11T12:18:19.999Z,3.17
2023-04-11T12:20:46.689Z,3.37
2023-04-11T12:23:13.456Z,3.37
2023-04-11T12:25:41.281Z,3.27
2023-04-11T12:28:09.576Z,3.23
2023-04-11T12:30:36.838Z,3.57
2023-04-11T12:33:03.954Z,3.60
2023-04-11T12:35:31.464Z,3.90
2023-04-11T12:37:58.224Z,4.10
2023-04-11T12:40:25.116Z,3.80
2023-04-11T12:44:22.954Z,3.80
2023-04-11T12:45:44.407Z,3.93
2023-04-11T12:48:11.150Z,3.60
2023-04-11T12:50:38.094Z,3.43
2023-04-11T12:53:06.170Z,3.40
2023-04-11T12:55:36.727Z,4.30
2023-04-11T12:58:03.983Z,4.30
2023-04-11T13:00:31.507Z,4.73
2023-04-11T13:02:59.051Z,4.47
2023-04-11T13:05:26.399Z,4.90
2023-04-11T13:07:53.837Z,4.57
2023-04-11T13:10:20.669Z,5.00
2023-04-11T13:12:48.661Z,4.53
2023-04-11T13:15:16.011Z,4.53
2023-04-11T13:17:42.972Z,4.83
2023-04-11T13:20:10.693Z,4.37
2023-04-11T13:22:40.128Z,4.37
2023-04-11T13:25:07.089Z,4.20
2023-04-11T13:27:34.702Z,4.53
2023-04-11T13:30:02.905Z,4.30
2023-04-11T13:32:29.899Z,4.20
2023-04-11T13:34:56.949Z,4.43
2023-04-11T13:37:23.717Z,5.17
2023-04-11T13:39:50.541Z,4.57
2023-04-11T13:42:18.625Z,4.87
2023-04-11T13:44:46.769Z,4.60
2023-04-11T13:47:14.007Z,4.50
2023-04-11T13:49:41.388Z,4.97
2023-04-11T13:52:08.388Z,4.90
2023-04-11T13:54:35.296Z,5.00
2023-04-11T13:57:06.913Z,5.07
2023-04-11T13:59:34.031Z,4.73
2023-04-11T14:02:01.541Z,5.37
2023-04-11T14:04:29.128Z,5.03
2023-04-11T14:06:55.985Z,4.57
2023-04-11T14:09:23.081Z,4.40
2023-04-11T14:11:49.714Z,4.27
2023-04-11T14:14:16.650Z,4.20
2023-04-11T14:16:43.809Z,4.67
2023-04-11T14:19:10.699Z,4.77
2023-04-11T14:21:37.833Z,4.53
2023-04-11T14:24:04.751Z,4.70
2023-04-11T14:26:31.584Z,4.30
2023-04-11T14:28:58.498Z,5.10
2023-04-11T14:31:25.468Z,4.67
2023-04-11T14:33:53.884Z,5.33
2023-04-11T14:36:22.795Z,3.40
2023-04-11T14:38:49.462Z,3.10
2023-04-11T14:41:16.103Z,3.43
2023-04-11T14:43:42.798Z,3.30
2023-04-11T14:46:10.512Z,4.03
2023-04-11T14:48:37.998Z,3.80
2023-04-11T14:51:06.167Z,4.30
2023-04-11T14:53:32.899Z,4.27
2023-04-11T14:55:59.605Z,4.87
2023-04-11T14:58:26.319Z,5.80
2023-04-11T15:00:53.008Z,6.43
2023-04-11T15:03:20.232Z,6.07
2023-04-11T15:05:48.238Z,6.10
2023-04-11T15:08:14.968Z,6.40
2023-04-11T15:10:42.272Z,5.93
2023-04-11T15:13:12.022Z,5.63
2023-04-11T15:15:38.707Z,5.23
2023-04-11T15:18:18.088Z,6.30
2023-04-11T15:20:46.313Z,4.93
2023-04-11T15:23:12.877Z,5.23
2023-04-11T15:25:39.576Z,4.10
2023-04-11T15:28:06.352Z,4.20
2023-04-11T15:30:33.075Z,4.00
2023-04-11T15:32:59.807Z,3.87
2023-04-11T15:35:26.493Z,3.53
2023-04-11T15:37:53.127Z,4.17
2023-04-11T15:40:24.354Z,4.00
2023-04-11T15:42:51.282Z,3.20
2023-04-11T15:45:18.288Z,2.97
2023-04-11T15:47:44.976Z,3.40
2023-04-11T15:50:12.202Z,3.37
2023-04-11T15:52:41.290Z,3.53
2023-04-11T15:55:08.970Z,4.20
2023-04-11T15:57:35.900Z,4.30
2023-04-11T16:00:08.822Z,3.93
2023-04-11T16:02:39.671Z,4.17
2023-04-11T16:05:08.051Z,6.03
2023-04-11T16:07:36.801Z,5.40
2023-04-11T16:10:03.580Z,4.97
2023-04-11T16:12:30.207Z,5.73
2023-04-11T16:14:56.978Z,6.90
2023-04-11T16:17:26.135Z,7.67
2023-04-11T16:19:52.925Z,7.07
2023-04-11T16:22:20.783Z,16.37
2023-04-11T16:24:47.564Z,13.73
2023-04-11T16:27:14.289Z,7.30
2023-04-11T16:29:42.422Z,7.67
2023-04-11T16:32:09.529Z,7.90
2023-04-11T16:34:36.279Z,8.30
2023-04-11T16:37:03.543Z,7.90
2023-04-11T16:39:30.979Z,8.20
2023-04-11T16:41:57.904Z,8.43
2023-04-11T16:44:24.661Z,9.20
2023-04-11T16:46:51.409Z,8.80
2023-04-11T16:49:19.386Z,9.60
2023-04-11T16:51:46.577Z,8.50
2023-04-11T16:54:13.879Z,9.00
2023-04-11T16:56:41.373Z,8.20
2023-04-11T16:59:08.193Z,7.60
2023-04-11T17:01:34.935Z,7.90
2023-04-11T17:04:02.052Z,7.43
2023-04-11T17:06:29.030Z,8.37
2023-04-11T17:08:57.690Z,8.20
2023-04-11T17:11:24.537Z,8.77
2023-04-11T17:13:51.709Z,9.30
2023-04-11T17:16:18.502Z,8.67
2023-04-11T17:18:45.260Z,8.83
2023-04-11T17:21:12.897Z,9.30
2023-04-11T17:23:56.755Z,9.33
2023-04-11T17:26:23.716Z,13.63
2023-04-11T17:28:50.339Z,10.07
2023-04-11T17:31:17.678Z,10.20
2023-04-11T17:33:44.469Z,9.77
2023-04-11T17:36:11.431Z,9.53
2023-04-11T17:38:38.554Z,21.30
2023-04-11T17:41:13.689Z,14.23
2023-04-11T17:43:41.880Z,10.73
2023-04-11T17:46:09.299Z,11.30
2023-04-11T17:48:36.386Z,11.90
2023-04-11T17:51:06.867Z,11.10
2023-04-11T17:53:33.745Z,11.03
2023-04-11T17:56:04.890Z,9.30
2023-04-11T17:58:32.744Z,9.47
2023-04-11T18:01:00.576Z,8.90
2023-04-11T18:03:27.450Z,8.40
2023-04-11T18:05:54.861Z,6.63
2023-04-11T18:08:28.717Z,5.83
2023-04-11T18:11:00.130Z,5.30
2023-04-11T18:13:27.641Z,4.53
2023-04-11T18:15:54.533Z,6.23
2023-04-11T18:18:21.284Z,14.13
2023-04-11T18:20:48.161Z,6.07
2023-04-11T18:23:14.821Z,7.77
2023-04-11T18:25:41.616Z,14.37
2023-04-11T18:28:08.540Z,7.73
2023-04-11T18:30:36.649Z,5.47
2023-04-11T18:33:04.528Z,8.40
2023-04-11T18:35:32.294Z,17.30
2023-04-11T18:38:00.255Z,6.93
2023-04-11T18:40:28.135Z,5.73
2023-04-11T18:42:56.289Z,10.90
2023-04-11T18:45:24.489Z,7.87
2023-04-11T18:47:51.727Z,6.23
2023-04-11T18:50:19.693Z,5.40
2023-04-11T18:52:50.428Z,4.00
2023-04-11T18:55:20.994Z,9.87
2023-04-11T18:57:50.797Z,8.13
2023-04-11T19:00:20.711Z,7.57
2023-04-11T19:02:51.140Z,6.70
2023-04-11T19:05:19.139Z,8.53
2023-04-11T19:07:46.302Z,8.77
2023-04-11T19:10:13.118Z,9.60
2023-04-11T19:12:40.621Z,8.00
2023-04-11T19:15:09.303Z,5.90
2023-04-11T19:17:36.837Z,4.00
2023-04-11T19:20:15.045Z,4.30
2023-04-11T19:22:42.077Z,5.83
2023-04-11T19:25:10.593Z,5.30
2023-04-11T19:27:42.858Z,4.70
2023-04-11T19:30:13.973Z,3.50
2023-04-11T19:32:46.182Z,3.43
2023-04-11T19:35:14.928Z,3.37
2023-04-11T19:37:42.231Z,3.70
2023-04-11T19:40:13.746Z,4.30
2023-04-11T19:42:41.941Z,3.90
2023-04-11T19:45:09.236Z,3.83
2023-04-11T19:47:36.109Z,4.00
2023-04-11T19:50:02.894Z,2.70
2023-04-11T19:52:29.737Z,2.37
2023-04-11T19:54:56.728Z,2.70
2023-04-11T19:57:25.700Z,2.03
2023-04-11T19:59:52.397Z,1.90
2023-04-11T20:02:20.126Z,2.00
2023-04-11T20:04:46.945Z,2.20
2023-04-11T20:07:13.704Z,1.97
2023-04-11T20:09:40.472Z,1.90
2023-04-11T20:12:10.808Z,1.60
2023-04-11T20:14:38.425Z,1.37
2023-04-11T20:17:05.917Z,1.30
2023-04-11T20:19:33.365Z,1.80
2023-04-11T20:22:01.127Z,1.90
2023-04-11T20:24:28.000Z,1.87
2023-04-11T20:26:55.245Z,1.70
2023-04-11T20:29:24.815Z,1.80
2023-04-11T20:31:51.552Z,1.37
2023-04-11T20:34:21.905Z,1.60
2023-04-11T20:36:48.669Z,1.90
2023-04-11T20:39:15.400Z,1.80
2023-04-11T20:41:42.083Z,1.93
2023-04-11T20:44:08.942Z,2.60
2023-04-11T20:46:39.825Z,2.03
2023-04-11T20:49:07.694Z,2.50
2023-04-11T20:51:34.802Z,11.60
2023-04-11T20:54:01.564Z,3.00
2023-04-11T20:56:28.560Z,2.10
2023-04-11T20:58:55.226Z,2.30
2023-04-11T21:01:22.721Z,2.03
2023-04-11T21:03:51.548Z,2.43
2023-04-11T21:06:18.267Z,2.10
2023-04-11T21:08:45.085Z,2.13
2023-04-11T21:11:11.699Z,2.23
2023-04-11T21:13:38.640Z,2.23
2023-04-11T21:16:05.817Z,2.67
2023-04-11T21:18:32.597Z,2.50
2023-04-11T21:20:59.361Z,2.30
2023-04-11T21:23:26.017Z,2.60
2023-04-11T21:25:52.611Z,3.33
2023-04-11T21:28:19.338Z,2.20
2023-04-11T21:30:46.064Z,2.40
2023-04-11T21:33:13.806Z,2.40
2023-04-11T21:35:40.487Z,2.10
2023-04-11T21:38:08.289Z,2.20
2023-04-11T21:40:34.897Z,2.00
2023-04-11T21:43:01.776Z,2.00
2023-04-11T21:45:29.010Z,2.10
2023-04-11T21:47:56.370Z,2.67
2023-04-11T21:50:23.351Z,2.60
2023-04-11T21:52:50.100Z,2.57
2023-04-11T21:55:16.896Z,2.43
2023-04-11T21:57:43.584Z,2.50
2023-04-11T22:00:13.633Z,2.80
2023-04-11T22:02:41.321Z,2.93
2023-04-11T22:05:11.143Z,2.70
2023-04-11T22:07:47.144Z,2.60
2023-04-11T22:10:14.265Z,2.60
2023-04-11T22:12:41.882Z,2.70
2023-04-11T22:15:08.755Z,2.67
2023-04-11T22:17:37.321Z,3.30
2023-04-11T22:20:05.080Z,2.83
2023-04-11T22:22:32.412Z,3.27
2023-04-11T22:24:59.450Z,3.40
2023-04-11T22:27:26.862Z,3.43
2023-04-11T22:29:56.311Z,3.77
2023-04-11T22:32:23.556Z,3.83
2023-04-11T22:34:50.228Z,4.43
2023-04-11T22:37:17.079Z,3.80
2023-04-11T22:39:43.717Z,4.33
2023-04-11T22:42:11.971Z,4.00
2023-04-11T22:44:39.416Z,4.27
2023-04-11T22:47:11.275Z,3.77
2023-04-11T22:49:41.852Z,3.97
2023-04-11T22:52:15.143Z,3.73
2023-04-11T22:54:42.185Z,3.37
2023-04-11T22:57:08.782Z,3.60
2023-04-11T22:59:35.749Z,3.73
2023-04-11T23:02:02.391Z,3.70
2023-04-11T23:04:31.168Z,4.17
2023-04-11T23:06:58.270Z,4.10
2023-04-11T23:09:24.904Z,4.07
2023-04-11T23:11:51.451Z,4.87
2023-04-11T23:14:19.290Z,3.63
2023-04-11T23:16:46.914Z,4.17
2023-04-11T23:19:13.762Z,4.13
2023-04-11T23:21:41.228Z,4.20
2023-04-11T23:24:09.205Z,4.80
2023-04-11T23:26:36.292Z,4.00
2023-04-11T23:29:04.868Z,3.50
2023-04-11T23:31:32.696Z,4.00
2023-04-11T23:34:00.910Z,4.10
2023-04-11T23:36:28.061Z,3.93
2023-04-11T23:38:54.871Z,3.87
2023-04-11T23:41:21.610Z,3.73
2023-04-11T23:43:48.345Z,3.80
2023-04-11T23:46:21.746Z,3.90
2023-04-11T23:48:49.066Z,4.20
2023-04-11T23:51:16.071Z,4.20
2023-04-11T23:53:42.863Z,4.07
2023-04-11T23:56:09.722Z,3.77
2023-04-11T23:58:36.564Z,3.60
